createdAt,value
2023-01-03T05:25:49.862Z,10.20
2023-01-03T05:28:18.322Z,10.20
2023-01-03T05:30:45.214Z,10.20
2023-01-03T05:33:11.922Z,11.30
2023-01-03T05:35:38.618Z,10.20
2023-01-03T05:38:05.394Z,10.20
2023-01-03T05:40:36.285Z,10.20
2023-01-03T05:43:08.110Z,10.20
2023-01-03T05:45:41.160Z,10.20
2023-01-03T05:48:09.627Z,10.20
2023-01-03T05:50:36.522Z,10.20
2023-01-03T05:53:03.941Z,10.10
2023-01-03T05:55:30.670Z,10.10
2023-01-03T05:57:57.358Z,10.10
2023-01-03T06:00:24.047Z,10.10
2023-01-03T06:02:50.943Z,10.10
2023-01-03T06:05:17.858Z,10.10
2023-01-03T06:07:44.684Z,10.00
2023-01-03T06:10:11.633Z,10.10
2023-01-03T06:12:38.346Z,10.00
2023-01-03T06:15:05.857Z,10.00
2023-01-03T06:17:51.349Z,10.00
2023-01-03T06:20:18.139Z,10.00
2023-01-03T06:22:44.764Z,9.90
2023-01-03T06:25:12.852Z,9.90
2023-01-03T06:27:39.704Z,9.90
2023-01-03T06:30:07.016Z,9.80
2023-01-03T06:32:33.721Z,9.80
2023-01-03T06:35:00.455Z,9.80
2023-01-03T06:37:27.116Z,9.70
2023-01-03T06:39:53.788Z,9.70
2023-01-03T06:42:39.161Z,9.70
2023-01-03T06:45:25.221Z,9.60
2023-01-03T06:48:10.683Z,9.50
2023-01-03T06:51:01.598Z,9.50
2023-01-03T06:53:37.725Z,9.50
2023-01-03T06:56:05.629Z,9.50
2023-01-03T06:58:32.397Z,9.40
2023-01-03T07:01:02.836Z,9.40
2023-01-03T07:03:33.549Z,9.40
2023-01-03T07:06:00.246Z,9.40
2023-01-03T07:08:26.957Z,9.30
2023-01-03T07:10:55.126Z,9.30
2023-01-03T07:13:41.011Z,9.30
2023-01-03T07:16:12.934Z,9.30
2023-01-03T07:18:39.604Z,9.30
2023-01-03T07:21:07.473Z,9.20
2023-01-03T07:23:34.503Z,9.20
2023-01-03T07:26:01.214Z,9.20
2023-01-03T07:28:28.198Z,9.20
2023-01-03T07:31:01.554Z,9.20
2023-01-03T07:33:29.429Z,9.20
2023-01-03T07:36:09.495Z,9.10
2023-01-03T07:38:39.815Z,9.20
2023-01-03T07:41:09.854Z,9.20
2023-01-03T07:43:42.557Z,9.20
2023-01-03T07:46:19.214Z,9.20
2023-01-03T07:48:48.254Z,9.20
2023-01-03T07:51:16.279Z,9.20
2023-01-03T07:53:43.343Z,9.20
2023-01-03T07:56:16.079Z,9.20
2023-01-03T07:58:44.350Z,9.20
2023-01-03T08:01:13.865Z,9.20
2023-01-03T08:03:41.339Z,9.20
2023-01-03T08:06:16.992Z,9.20
2023-01-03T08:08:44.260Z,9.30
2023-01-03T08:11:32.462Z,9.30
2023-01-03T08:13:59.982Z,9.20
2023-01-03T08:16:26.812Z,9.20
2023-01-03T08:18:53.585Z,9.20
2023-01-03T08:21:20.325Z,9.30
2023-01-03T08:23:48.839Z,9.20
2023-01-03T08:26:16.887Z,9.20
2023-01-03T08:28:44.761Z,9.20
2023-01-03T08:31:22.979Z,9.20
2023-01-03T08:33:55.102Z,9.20
2023-01-03T08:36:24.057Z,9.10
2023-01-03T08:39:02.427Z,9.20
2023-01-03T08:41:31.630Z,9.20
2023-01-03T08:44:00.613Z,9.20
2023-01-03T08:46:27.926Z,9.20
2023-01-03T08:48:55.630Z,9.20
2023-01-03T08:51:24.946Z,9.30
2023-01-03T08:53:51.604Z,9.30
2023-01-03T08:56:21.476Z,9.40
2023-01-03T08:58:48.126Z,9.40
2023-01-03T09:01:15.150Z,9.50
2023-01-03T09:03:42.075Z,9.50
2023-01-03T09:06:08.933Z,9.60
2023-01-03T09:08:35.633Z,9.60
2023-01-03T09:11:06.714Z,9.60
2023-01-03T09:13:33.853Z,9.60
2023-01-03T09:16:06.347Z,9.70
2023-01-03T09:18:34.317Z,9.70
2023-01-03T09:21:03.144Z,9.70
2023-01-03T09:23:30.413Z,9.80
2023-01-03T09:25:57.124Z,9.80
2023-01-03T09:28:24.466Z,9.80
2023-01-03T09:30:51.500Z,9.80
2023-01-03T09:33:18.445Z,9.80
2023-01-03T09:35:45.218Z,9.70
2023-01-03T09:38:12.337Z,9.70
2023-01-03T09:40:44.186Z,9.80
2023-01-03T09:43:25.225Z,9.70
2023-01-03T09:45:55.263Z,9.70
2023-01-03T09:48:49.153Z,9.70
2023-01-03T09:51:43.122Z,9.70
2023-01-03T09:54:35.783Z,9.60
2023-01-03T09:57:28.349Z,9.60
2023-01-03T10:00:13.857Z,9.50
2023-01-03T10:03:26.749Z,9.60
2023-01-03T10:06:28.791Z,9.60
2023-01-03T10:09:11.507Z,9.60
2023-01-03T10:12:19.674Z,9.60
2023-01-03T10:15:16.019Z,9.60
2023-01-03T10:17:48.653Z,9.60
2023-01-03T10:20:40.797Z,9.60
2023-01-03T10:23:09.532Z,9.60
2023-01-03T10:25:40.031Z,9.50
2023-01-03T10:28:15.800Z,9.40
2023-01-03T10:30:59.518Z,9.50
2023-01-03T10:33:40.125Z,9.50
2023-01-03T10:36:08.621Z,9.50
2023-01-03T10:38:44.722Z,9.50
2023-01-03T10:41:21.667Z,9.50
2023-01-03T10:44:00.318Z,9.50
2023-01-03T10:46:31.025Z,9.40
2023-01-03T10:49:27.174Z,9.50
2023-01-03T10:51:58.108Z,9.40
2023-01-03T10:54:28.458Z,9.50
2023-01-03T10:56:55.260Z,9.50
2023-01-03T10:59:25.454Z,9.60
2023-01-03T11:02:18.981Z,9.60
2023-01-03T11:04:45.842Z,9.60
2023-01-03T11:07:16.756Z,9.70
2023-01-03T11:09:52.280Z,9.60
2023-01-03T11:12:38.436Z,9.60
2023-01-03T11:15:18.753Z,9.60
2023-01-03T11:18:02.368Z,9.60
2023-01-03T11:20:58.555Z,9.60
2023-01-03T11:23:56.336Z,9.60
2023-01-03T11:26:45.256Z,9.70
2023-01-03T11:29:14.973Z,9.70
2023-01-03T11:32:10.695Z,9.70
2023-01-03T11:38:30.880Z,9.70
2023-01-03T11:41:14.728Z,9.60
2023-01-03T11:43:46.829Z,9.70
2023-01-03T11:46:23.033Z,9.70
2023-01-03T11:49:14.381Z,9.60
2023-01-03T11:52:17.861Z,9.70
2023-01-03T11:55:08.635Z,9.60
2023-01-03T11:57:54.122Z,9.70
2023-01-03T12:00:23.519Z,9.70
2023-01-03T12:03:07.020Z,9.70
2023-01-03T12:05:44.244Z,9.70
2023-01-03T12:08:41.012Z,9.70
2023-01-03T12:11:16.792Z,9.70
2023-01-03T12:13:49.441Z,9.80
2023-01-03T12:16:25.184Z,9.80
2023-01-03T12:19:16.376Z,9.80
2023-01-03T12:21:51.445Z,9.90
2023-01-03T12:24:36.226Z,9.90
2023-01-03T12:27:17.439Z,9.90
2023-01-03T12:29:59.377Z,10.00
2023-01-03T12:32:35.023Z,10.00
2023-01-03T12:35:32.795Z,10.10
2023-01-03T12:37:59.492Z,10.10
2023-01-03T12:40:45.551Z,10.10
2023-01-03T12:43:19.440Z,10.10
2023-01-03T12:46:10.278Z,10.20
2023-01-03T12:49:01.508Z,10.20
2023-01-03T12:51:28.469Z,10.20
2023-01-03T12:54:29.585Z,10.20
2023-01-03T12:57:24.429Z,10.30
2023-01-03T13:00:12.567Z,10.30
2023-01-03T13:02:46.677Z,10.30
2023-01-03T13:05:42.071Z,10.30
2023-01-03T13:08:27.696Z,10.40
2023-01-03T13:10:59.352Z,10.40
2023-01-03T13:13:26.489Z,10.40
2023-01-03T13:15:54.099Z,10.50
2023-01-03T13:18:23.760Z,10.50
2023-01-03T13:20:52.155Z,10.50
2023-01-03T13:23:29.237Z,10.50
2023-01-03T13:26:05.612Z,10.50
2023-01-03T13:28:35.962Z,10.50
2023-01-03T13:31:14.976Z,10.50
2023-01-03T13:34:18.089Z,10.60
2023-01-03T13:37:15.149Z,10.50
2023-01-03T13:39:55.696Z,10.50
2023-01-03T13:43:02.324Z,10.50
2023-01-03T13:45:32.167Z,10.50
2023-01-03T13:48:09.186Z,10.50
2023-01-03T13:50:37.353Z,10.50
2023-01-03T13:53:11.167Z,10.50
2023-01-03T13:55:54.259Z,10.50
2023-01-03T13:58:24.493Z,10.40
2023-01-03T14:00:52.810Z,10.40
2023-01-03T14:04:02.109Z,10.40
2023-01-03T14:07:03.860Z,10.50
2023-01-03T14:09:51.413Z,10.40
2023-01-03T14:12:45.463Z,10.40
2023-01-03T14:15:25.905Z,10.40
2023-01-03T14:17:56.744Z,10.40
2023-01-03T14:20:28.619Z,10.40
2023-01-03T14:22:57.010Z,10.40
2023-01-03T14:25:42.057Z,10.40
2023-01-03T14:28:27.079Z,10.30
2023-01-03T14:30:58.111Z,10.30
2023-01-03T14:33:30.291Z,10.30
2023-01-03T14:36:13.707Z,10.30
2023-01-03T14:38:56.912Z,10.30
2023-01-03T14:41:37.484Z,10.30
2023-01-03T14:44:07.779Z,10.20
2023-01-03T14:46:35.073Z,10.20
2023-01-03T14:49:05.644Z,10.20
2023-01-03T14:51:34.631Z,10.20
2023-01-03T14:54:02.591Z,10.10
2023-01-03T14:56:30.476Z,10.10
2023-01-03T14:58:58.079Z,10.10
2023-01-03T15:01:25.358Z,10.10
2023-01-03T15:03:53.286Z,10.10
2023-01-03T15:06:24.273Z,10.00
2023-01-03T15:08:56.974Z,10.00
2023-01-03T15:11:32.086Z,10.00
2023-01-03T15:14:06.875Z,10.00
2023-01-03T15:16:36.842Z,9.90
2023-01-03T15:19:23.253Z,9.90
2023-01-03T15:21:50.394Z,9.90
2023-01-03T15:24:23.120Z,9.80
2023-01-03T15:26:52.072Z,9.80
2023-01-03T15:29:28.121Z,9.80
2023-01-03T15:31:54.907Z,9.70
2023-01-03T15:34:29.086Z,9.70
2023-01-03T15:36:58.908Z,9.60
2023-01-03T15:39:30.354Z,9.60
2023-01-03T15:42:43.573Z,9.50
2023-01-03T15:45:36.803Z,9.50
2023-01-03T15:48:13.444Z,9.50
2023-01-03T15:50:49.575Z,9.40
2023-01-03T15:53:43.765Z,9.30
2023-01-03T15:56:33.873Z,9.30
2023-01-03T15:59:04.671Z,9.30
2023-01-03T16:01:31.525Z,9.30
2023-01-03T16:03:58.333Z,9.20
2023-01-03T16:06:25.007Z,9.20
2023-01-03T16:08:51.857Z,9.10
2023-01-03T16:11:33.421Z,9.10
2023-01-03T16:14:04.749Z,9.00
2023-01-03T16:16:36.353Z,9.00
2023-01-03T16:19:05.427Z,8.90
2023-01-03T16:21:32.789Z,8.80
2023-01-03T16:23:59.799Z,8.80
2023-01-03T16:26:26.558Z,8.70
2023-01-03T16:28:53.298Z,8.70
2023-01-03T16:31:28.428Z,8.60
2023-01-03T16:33:56.115Z,8.60
2023-01-03T16:36:30.695Z,8.60
2023-01-03T16:38:58.030Z,8.60
2023-01-03T16:41:24.939Z,8.50
2023-01-03T16:43:52.724Z,8.50
2023-01-03T16:46:22.302Z,8.40
2023-01-03T16:48:54.262Z,8.40
2023-01-03T16:51:30.389Z,8.30
2023-01-03T16:53:59.176Z,8.30
2023-01-03T16:56:26.267Z,8.30
2023-01-03T16:58:53.291Z,8.20
2023-01-03T17:01:20.496Z,8.20
2023-01-03T17:03:47.337Z,8.20
2023-01-03T17:06:37.484Z,8.10
2023-01-03T17:09:21.106Z,8.10
2023-01-03T17:11:48.288Z,8.10
2023-01-03T17:14:20.588Z,8.10
2023-01-03T17:16:48.636Z,8.00
2023-01-03T17:20:02.192Z,8.00
2023-01-03T17:22:14.797Z,8.00
2023-01-03T17:24:41.827Z,7.90
2023-01-03T17:27:18.329Z,7.90
2023-01-03T17:29:46.279Z,7.90
2023-01-03T17:32:18.319Z,7.90
2023-01-03T17:34:44.997Z,7.90
2023-01-03T17:37:18.349Z,7.80
2023-01-03T17:39:53.834Z,7.70
2023-01-03T17:42:21.932Z,7.70
2023-01-03T17:45:08.599Z,7.70
2023-01-03T17:47:57.932Z,7.60
2023-01-03T17:50:25.372Z,7.60
2023-01-03T17:52:55.941Z,7.60
2023-01-03T17:55:27.082Z,7.60
2023-01-03T17:57:55.067Z,7.60
2023-01-03T18:00:24.743Z,7.50
2023-01-03T18:02:52.565Z,7.50
2023-01-03T18:05:26.983Z,7.50
2023-01-03T18:08:00.407Z,7.50
2023-01-03T18:10:46.086Z,7.50
2023-01-03T18:13:31.694Z,7.50
2023-01-03T18:15:58.893Z,7.40
2023-01-03T18:18:27.526Z,7.40
2023-01-03T18:20:55.255Z,7.40
2023-01-03T18:23:33.009Z,7.40
2023-01-03T18:26:10.598Z,7.40
2023-01-03T18:28:37.248Z,7.40
2023-01-03T18:31:04.273Z,7.40
2023-01-03T18:33:31.032Z,7.40
2023-01-03T18:35:57.860Z,7.40
2023-01-03T18:38:41.372Z,7.40
2023-01-03T18:41:19.047Z,7.30
2023-01-03T18:43:45.712Z,7.30
2023-01-03T18:46:16.189Z,7.30
2023-01-03T18:48:42.923Z,7.30
2023-01-03T18:51:18.293Z,7.30
2023-01-03T18:53:47.483Z,7.30
2023-01-03T18:56:37.848Z,7.20
2023-01-03T18:59:18.757Z,7.20
2023-01-03T19:01:45.514Z,7.20
2023-01-03T19:04:12.348Z,7.20
2023-01-03T19:06:43.071Z,7.20
2023-01-03T19:09:14.820Z,7.10
2023-01-03T19:11:41.508Z,7.10
2023-01-03T19:14:09.811Z,7.10
2023-01-03T19:16:37.699Z,7.10
2023-01-03T19:19:06.860Z,7.10
2023-01-03T19:21:36.691Z,7.10
2023-01-03T19:24:07.647Z,7.10
2023-01-03T19:26:41.014Z,7.00
2023-01-03T19:29:16.566Z,6.90
2023-01-03T19:31:45.844Z,7.00
2023-01-03T19:34:18.256Z,7.00
2023-01-03T19:36:45.544Z,6.90
2023-01-03T19:39:13.122Z,6.90
2023-01-03T19:42:18.870Z,6.80
2023-01-03T19:44:45.872Z,6.80
2023-01-03T19:47:18.684Z,6.80
2023-01-03T19:49:49.667Z,6.80
2023-01-03T19:52:17.345Z,6.80
2023-01-03T19:54:44.378Z,6.80
2023-01-03T19:57:20.697Z,6.80
2023-01-03T19:59:51.896Z,6.80
2023-01-03T20:02:33.543Z,6.80
2023-01-03T20:05:00.559Z,6.80
2023-01-03T20:07:27.485Z,6.70
2023-01-03T20:09:54.134Z,6.80
2023-01-03T20:12:25.901Z,6.80
2023-01-03T20:14:58.750Z,6.70
2023-01-03T20:17:29.498Z,6.70
2023-01-03T20:19:56.163Z,6.70
2023-01-03T20:23:04.060Z,6.70
2023-01-03T20:25:30.959Z,6.70
2023-01-03T20:27:59.060Z,6.70
2023-01-03T20:30:27.708Z,6.70
2023-01-03T20:32:54.546Z,6.70
2023-01-03T20:38:11.986Z,6.60
2023-01-03T20:40:39.278Z,6.60
2023-01-03T20:43:06.126Z,6.60
2023-01-03T20:45:33.392Z,6.60
2023-01-03T20:48:00.291Z,6.50
2023-01-03T20:50:28.817Z,6.50
2023-01-03T20:52:57.903Z,6.50
2023-01-03T20:55:26.566Z,6.50
2023-01-03T20:57:53.419Z,6.50
2023-01-03T21:00:25.049Z,6.50
2023-01-03T21:02:52.533Z,6.40
2023-01-03T21:05:19.714Z,6.40
2023-01-03T21:08:05.352Z,6.40
2023-01-03T21:10:37.751Z,6.30
2023-01-03T21:13:04.880Z,6.30
2023-01-03T21:15:32.099Z,6.30
2023-01-03T21:17:59.099Z,6.30
2023-01-03T21:20:29.490Z,6.20
2023-01-03T21:22:56.668Z,6.20
2023-01-03T21:25:28.017Z,6.20
2023-01-03T21:27:54.968Z,6.20
2023-01-03T21:30:23.341Z,6.20
2023-01-03T21:32:50.116Z,6.20
2023-01-03T21:35:19.416Z,6.10
2023-01-03T21:37:46.385Z,6.10
2023-01-03T21:40:26.128Z,6.10
2023-01-03T21:43:05.663Z,6.00
2023-01-03T21:45:36.852Z,6.00
2023-01-03T21:48:09.449Z,6.00
2023-01-03T21:50:40.193Z,6.00
2023-01-03T21:53:07.141Z,6.00
2023-01-03T21:55:33.867Z,5.90
2023-01-03T21:58:00.967Z,5.90
2023-01-03T22:00:27.641Z,5.90
2023-01-03T22:03:12.786Z,5.90
2023-01-03T22:05:39.550Z,5.90
2023-01-03T22:08:06.744Z,5.90
2023-01-03T22:10:34.342Z,5.90
2023-01-03T22:13:03.621Z,5.90
2023-01-03T22:15:30.375Z,5.80
2023-01-03T22:17:57.243Z,5.70
2023-01-03T22:20:26.058Z,5.70
2023-01-03T22:22:53.347Z,5.80
2023-01-03T22:25:22.495Z,5.80
2023-01-03T22:27:49.583Z,5.70
2023-01-03T22:30:18.717Z,5.70
2023-01-03T22:32:46.205Z,5.70
2023-01-03T22:35:14.777Z,5.70
2023-01-03T22:37:41.551Z,5.70
2023-01-03T22:40:12.143Z,5.70
2023-01-03T22:42:38.941Z,5.70
2023-01-03T22:45:07.129Z,5.70
2023-01-03T22:47:36.586Z,5.70
2023-01-03T22:50:04.670Z,5.70
2023-01-03T22:52:31.381Z,5.70
2023-01-03T22:54:58.248Z,5.60
2023-01-03T22:57:24.921Z,5.60
2023-01-03T22:59:51.703Z,5.60
2023-01-03T23:02:19.970Z,5.60
2023-01-03T23:04:51.717Z,5.40
2023-01-03T23:07:18.389Z,5.40
2023-01-03T23:09:45.125Z,5.40
2023-01-03T23:12:30.395Z,5.30
2023-01-03T23:14:57.057Z,5.30
2023-01-03T23:17:42.573Z,5.30
2023-01-03T23:20:09.857Z,5.30
2023-01-03T23:22:36.512Z,5.30
2023-01-03T23:25:03.400Z,5.30
2023-01-03T23:27:30.381Z,5.30
2023-01-03T23:29:57.043Z,5.30
2023-01-03T23:32:23.717Z,5.30
2023-01-03T23:34:50.406Z,5.20
2023-01-03T23:37:17.092Z,5.30
2023-01-03T23:39:43.808Z,5.30
2023-01-03T23:42:10.526Z,5.30
2023-01-03T23:44:37.239Z,5.30
2023-01-03T23:47:11.099Z,5.30
2023-01-03T23:49:38.522Z,5.30
2023-01-03T23:52:05.222Z,5.30
2023-01-03T23:54:32.067Z,5.40
2023-01-03T23:56:58.903Z,5.30
2023-01-03T23:59:25.576Z,5.30
